createdAt,value
2019-04-01T00:01:51.871Z,102127.52
2019-04-01T00:04:21.391Z,102131.55
2019-04-01T00:06:50.904Z,102128.03
2019-04-01T00:09:20.418Z,102137.69
2019-04-01T00:11:49.934Z,102133.33
2019-04-01T00:14:19.468Z,102131.57
2019-04-01T00:16:48.982Z,102130.59
2019-04-01T00:19:18.533Z,102125.45
2019-04-01T00:21:48.039Z,102125.58
2019-04-01T00:24:17.554Z,102128.81
2019-04-01T00:26:47.058Z,102122.80
2019-04-01T00:29:16.604Z,102121.14
2019-04-01T00:31:46.147Z,102119.06
2019-04-01T00:34:15.713Z,102123.36
2019-04-01T00:36:45.215Z,102128.42
2019-04-01T00:39:14.727Z,102123.67
2019-04-01T00:41:51.542Z,102127.77
2019-04-01T00:44:21.080Z,102124.77
2019-04-01T00:46:50.598Z,102124.04
2019-04-01T00:49:20.128Z,102123.23
2019-04-01T00:51:49.626Z,102125.30
2019-04-01T00:54:19.129Z,102124.16
2019-04-01T00:56:48.639Z,102117.82
2019-04-01T00:59:18.184Z,102112.66
2019-04-01T01:01:48.740Z,102109.15
2019-04-01T01:04:18.258Z,102109.33
2019-04-01T01:06:47.779Z,102107.58
2019-04-01T01:09:17.307Z,102103.72
2019-04-01T01:11:46.824Z,102104.87
2019-04-01T01:14:16.358Z,102105.27
2019-04-01T01:16:45.921Z,102099.36
2019-04-01T01:19:16.406Z,102097.81
2019-04-01T01:21:45.933Z,102099.00
2019-04-01T01:24:15.440Z,102096.76
2019-04-01T01:26:44.962Z,102092.39
2019-04-01T01:29:14.473Z,102090.05
2019-04-01T01:31:43.994Z,102095.30
2019-04-01T01:34:13.502Z,102095.20
2019-04-01T01:36:43.033Z,102090.66
2019-04-01T01:39:13.518Z,102093.78
2019-04-01T01:41:43.030Z,102093.41
2019-04-01T01:44:12.616Z,102094.55
2019-04-01T01:46:42.151Z,102089.94
2019-04-01T01:49:11.676Z,102086.55
2019-04-01T01:51:41.201Z,102081.67
2019-04-01T01:54:12.510Z,102084.98
2019-04-01T01:56:42.043Z,102085.95
2019-04-01T01:59:11.654Z,102082.16
2019-04-01T02:01:41.196Z,102078.84
2019-04-01T02:04:10.713Z,102078.28
2019-04-01T02:06:40.245Z,102075.84
2019-04-01T02:09:10.747Z,102081.27
2019-04-01T02:11:40.251Z,102072.34
2019-04-01T02:14:09.762Z,102077.47
2019-04-01T02:16:40.253Z,102076.11
2019-04-01T02:19:09.767Z,102082.54
2019-04-01T02:21:39.274Z,102074.35
2019-04-01T02:24:08.779Z,102073.97
2019-04-01T02:26:38.308Z,102068.02
2019-04-01T02:29:07.830Z,102065.70
2019-04-01T02:31:37.363Z,102059.55
2019-04-01T02:34:06.909Z,102059.77
2019-04-01T02:36:36.397Z,102068.23
2019-04-01T02:39:08.532Z,102059.06
2019-04-01T02:41:38.049Z,102060.92
2019-04-01T02:44:07.566Z,102057.72
2019-04-01T02:46:37.091Z,102055.69
2019-04-01T02:49:06.625Z,102059.97
2019-04-01T02:51:36.166Z,102055.58
2019-04-01T02:54:05.758Z,102062.61
2019-04-01T02:56:35.292Z,102059.19
2019-04-01T02:59:04.826Z,102061.44
2019-04-01T03:01:34.376Z,102060.34
2019-04-01T03:04:04.083Z,102065.80
2019-04-01T03:06:33.597Z,102060.36
2019-04-01T03:09:04.838Z,102055.48
2019-04-01T03:11:34.357Z,102060.46
2019-04-01T03:14:03.898Z,102058.32
2019-04-01T03:16:33.418Z,102047.49
2019-04-01T03:19:02.935Z,102051.89
2019-04-01T03:21:32.525Z,102050.50
2019-04-01T03:24:02.128Z,102046.22
2019-04-01T03:26:31.766Z,102047.17
2019-04-01T03:29:01.329Z,102050.15
2019-04-01T03:31:30.870Z,102053.63
2019-04-01T03:34:00.388Z,102052.16
2019-04-01T03:36:29.896Z,102054.58
2019-04-01T03:38:59.413Z,102048.48
2019-04-01T03:41:28.964Z,102054.11
2019-04-01T03:43:58.615Z,102045.75
2019-04-01T03:46:28.146Z,102028.59
2019-04-01T03:48:57.670Z,102049.74
2019-04-01T03:51:27.208Z,102047.61
2019-04-01T03:53:56.825Z,102046.77
2019-04-01T03:56:26.438Z,102047.36
2019-04-01T03:58:55.959Z,102047.17
2019-04-01T04:01:30.086Z,102048.98
2019-04-01T04:03:56.729Z,102050.02
2019-04-01T04:06:26.318Z,102055.84
2019-04-01T04:08:55.844Z,102052.80
2019-04-01T04:11:25.348Z,102053.38
2019-04-01T04:13:54.923Z,102051.94
2019-04-01T04:16:24.462Z,102054.11
2019-04-01T04:18:53.966Z,102050.84
2019-04-01T04:21:24.227Z,102053.69
2019-04-01T04:23:54.032Z,102050.09
2019-04-01T04:26:23.562Z,102051.01
2019-04-01T04:28:53.088Z,102049.47
2019-04-01T04:31:22.597Z,102048.78
2019-04-01T04:33:52.137Z,102045.89
2019-04-01T04:36:21.669Z,102048.23
2019-04-01T04:38:51.179Z,102045.15
2019-04-01T04:41:20.683Z,102049.30
2019-04-01T04:43:50.281Z,102050.47
2019-04-01T04:46:21.183Z,102054.10
2019-04-01T04:48:52.096Z,102045.62
2019-04-01T04:51:21.597Z,102043.83
2019-04-01T04:53:51.151Z,102044.57
2019-04-01T04:56:20.710Z,102048.17
2019-04-01T04:58:50.256Z,102047.72
2019-04-01T05:01:19.764Z,102051.89
2019-04-01T05:03:49.279Z,102053.70
2019-04-01T05:06:18.784Z,102048.75
2019-04-01T05:08:48.301Z,102053.73
2019-04-01T05:11:17.827Z,102059.15
2019-04-01T05:13:48.331Z,102053.56
2019-04-01T05:16:17.850Z,102054.81
2019-04-01T05:18:47.358Z,102049.95
2019-04-01T05:21:17.929Z,102063.81
2019-04-01T05:23:48.136Z,102060.05
2019-04-01T05:26:18.215Z,102069.32
2019-04-01T05:28:47.746Z,102070.87
2019-04-01T05:31:19.949Z,102068.73
2019-04-01T05:33:55.743Z,102068.23
2019-04-01T05:36:23.053Z,102067.59
2019-04-01T05:38:52.647Z,102072.08
2019-04-01T05:41:22.281Z,102070.14
2019-04-01T05:43:51.920Z,102073.55
2019-04-01T05:46:21.647Z,102072.88
2019-04-01T05:48:51.236Z,102071.83
2019-04-01T05:51:20.869Z,102077.19
2019-04-01T05:53:50.404Z,102076.59
2019-04-01T05:56:19.914Z,102079.78
2019-04-01T05:58:49.443Z,102087.10
2019-04-01T06:01:23.022Z,102087.41
2019-04-01T06:03:52.543Z,102077.11
2019-04-01T06:06:22.059Z,102077.87
2019-04-01T06:08:51.593Z,102086.95
2019-04-01T06:11:21.183Z,102074.38
2019-04-01T06:13:50.790Z,102078.78
2019-04-01T06:16:20.573Z,102084.02
2019-04-01T06:18:50.085Z,102081.92
2019-04-01T06:21:19.659Z,102078.75
2019-04-01T06:23:50.173Z,102079.55
2019-04-01T06:26:19.728Z,102088.49
2019-04-01T06:28:49.278Z,102087.05
2019-04-01T06:31:18.801Z,102082.10
2019-04-01T06:33:49.375Z,102083.02
2019-04-01T06:36:18.919Z,102087.97
2019-04-01T06:38:48.807Z,102084.02
2019-04-01T06:41:18.420Z,102083.14
2019-04-01T06:43:47.946Z,102082.73
2019-04-01T06:46:17.527Z,102089.25
2019-04-01T06:48:47.144Z,102079.93
2019-04-01T06:51:16.852Z,102086.70
2019-04-01T06:53:46.377Z,102086.38
2019-04-01T06:56:15.895Z,102081.36
2019-04-01T06:58:45.478Z,102085.08
2019-04-01T07:01:15.042Z,102080.20
2019-04-01T07:03:44.537Z,102078.93
2019-04-01T07:06:15.093Z,102091.13
2019-04-01T07:08:44.626Z,102085.36
2019-04-01T07:11:14.130Z,102088.77
2019-04-01T07:13:44.245Z,102085.15
2019-04-01T07:16:15.776Z,102086.20
2019-04-01T07:18:45.044Z,102086.80
2019-04-01T07:21:14.599Z,102080.81
2019-04-01T07:23:44.182Z,102088.56
2019-04-01T07:26:13.869Z,102080.03
2019-04-01T07:28:45.470Z,102084.81
2019-04-01T07:31:14.985Z,102088.19
2019-04-01T07:33:45.483Z,102090.82
2019-04-01T07:36:15.076Z,102089.02
2019-04-01T07:38:44.669Z,102086.63
2019-04-01T07:41:14.269Z,102090.19
2019-04-01T07:43:43.784Z,102088.13
2019-04-01T07:46:13.381Z,102091.15
2019-04-01T07:48:43.019Z,102092.27
2019-04-01T07:51:12.590Z,102094.44
2019-04-01T07:53:42.208Z,102088.23
2019-04-01T07:56:11.733Z,102083.17
2019-04-01T07:58:42.099Z,102084.50
2019-04-01T08:01:11.980Z,102086.09
2019-04-01T08:03:42.034Z,102084.64
2019-04-01T08:06:11.971Z,102084.41
2019-04-01T08:08:41.493Z,102071.76
2019-04-01T08:11:11.096Z,102076.70
2019-04-01T08:13:40.616Z,102074.98
2019-04-01T08:16:10.140Z,102072.45
2019-04-01T08:18:39.760Z,102078.95
2019-04-01T08:21:09.379Z,102075.02
2019-04-01T08:23:39.985Z,102073.48
2019-04-01T08:26:09.579Z,102080.92
2019-04-01T08:28:39.097Z,102078.55
2019-04-01T08:31:08.694Z,102077.14
2019-04-01T08:33:38.243Z,102080.75
2019-04-01T08:36:07.768Z,102078.73
2019-04-01T08:38:37.440Z,102078.73
2019-04-01T08:41:08.016Z,102071.56
2019-04-01T08:43:37.532Z,102071.47
2019-04-01T08:46:07.140Z,102071.59
2019-04-01T08:48:36.794Z,102070.08
2019-04-01T08:51:06.362Z,102066.35
2019-04-01T08:53:36.942Z,102061.69
2019-04-01T08:56:06.578Z,102057.45
2019-04-01T08:58:36.522Z,102046.27
2019-04-01T09:01:06.172Z,102040.20
2019-04-01T09:03:35.712Z,102059.57
2019-04-01T09:06:05.465Z,102054.09
2019-04-01T09:08:35.112Z,102051.98
2019-04-01T09:11:04.716Z,102052.55
2019-04-01T09:13:34.316Z,102051.38
2019-04-01T09:16:04.349Z,102049.30
2019-04-01T09:18:33.868Z,102053.22
2019-04-01T09:21:03.491Z,102046.02
2019-04-01T09:23:34.145Z,102042.33
2019-04-01T09:26:03.679Z,102041.70
2019-04-01T09:28:33.296Z,102040.03
2019-04-01T09:31:02.911Z,102039.17
2019-04-01T09:33:32.423Z,102037.00
2019-04-01T09:36:01.996Z,102035.96
2019-04-01T09:38:31.570Z,102027.31
2019-04-01T09:41:01.173Z,102022.61
2019-04-01T09:43:30.738Z,102024.95
2019-04-01T09:46:00.338Z,102020.17
2019-04-01T09:48:30.026Z,102012.59
2019-04-01T09:50:59.557Z,102006.82
2019-04-01T09:53:29.090Z,102004.53
2019-04-01T09:55:58.641Z,102005.12
2019-04-01T09:58:28.791Z,102009.37
2019-04-01T10:00:58.342Z,101983.80
2019-04-01T10:03:27.875Z,101993.58
2019-04-01T10:05:57.425Z,101987.69
2019-04-01T10:08:41.587Z,101975.69
2019-04-01T10:10:59.189Z,101978.69
2019-04-01T10:13:28.774Z,101974.73
2019-04-01T10:15:58.301Z,101967.41
2019-04-01T10:18:27.837Z,101972.24
2019-04-01T10:20:57.388Z,101954.26
2019-04-01T10:23:27.903Z,101953.20
2019-04-01T10:25:57.429Z,101954.55
2019-04-01T10:28:26.948Z,101947.56
2019-04-01T10:30:56.596Z,101945.83
2019-04-01T10:33:26.126Z,101949.84
2019-04-01T10:35:55.663Z,101940.70
2019-04-01T10:38:25.275Z,101929.62
2019-04-01T10:40:54.830Z,101936.83
2019-04-01T10:43:24.338Z,101933.29
2019-04-01T10:45:53.910Z,101923.13
2019-04-01T10:48:23.524Z,101922.16
2019-04-01T10:50:53.110Z,101915.24
2019-04-01T10:53:22.870Z,101913.74
2019-04-01T10:55:52.568Z,101912.98
2019-04-01T10:58:22.176Z,101896.70
2019-04-01T11:00:51.871Z,101909.32
2019-04-01T11:03:21.449Z,101904.64
2019-04-01T11:05:51.043Z,101889.91
2019-04-01T11:08:20.542Z,101890.16
2019-04-01T11:10:50.037Z,101888.20
2019-04-01T11:13:19.577Z,101887.84
2019-04-01T11:15:49.184Z,101873.08
2019-04-01T11:18:18.803Z,101874.30
2019-04-01T11:20:48.386Z,101875.91
2019-04-01T11:23:18.015Z,101873.95
2019-04-01T11:25:47.541Z,101878.39
2019-04-01T11:28:17.134Z,101878.09
2019-04-01T11:30:46.664Z,101867.70
2019-04-01T11:33:16.223Z,101867.06
2019-04-01T11:35:46.048Z,101861.55
2019-04-01T11:38:15.764Z,101862.98
2019-04-01T11:40:45.277Z,101859.17
2019-04-01T11:43:14.804Z,101857.90
2019-04-01T11:45:44.427Z,101849.38
2019-04-01T11:48:14.004Z,101847.28
2019-04-01T11:50:43.553Z,101849.22
2019-04-01T11:53:13.126Z,101842.36
2019-04-01T11:55:42.750Z,101846.06
2019-04-01T11:58:12.367Z,101839.94
2019-04-01T12:00:41.894Z,101840.61
2019-04-01T12:03:11.422Z,101822.15
2019-04-01T12:05:40.930Z,101823.77
2019-04-01T12:08:10.483Z,101824.08
2019-04-01T12:10:40.044Z,101817.17
2019-04-01T12:13:09.556Z,101807.50
2019-04-01T12:15:39.083Z,101805.98
2019-04-01T12:18:09.832Z,101803.83
2019-04-01T12:20:39.441Z,101801.62
2019-04-01T12:23:10.253Z,101802.41
2019-04-01T12:25:39.802Z,101799.94
2019-04-01T12:28:09.422Z,101796.45
2019-04-01T12:30:38.936Z,101783.91
2019-04-01T12:33:09.263Z,101789.92
2019-04-01T12:35:38.845Z,101787.73
2019-04-01T12:38:08.366Z,101778.08
2019-04-01T12:40:37.947Z,101774.58
2019-04-01T12:43:07.510Z,101769.92
2019-04-01T12:45:38.116Z,101759.23
2019-04-01T12:48:07.729Z,101760.09
2019-04-01T12:50:37.276Z,101763.48
2019-04-01T12:53:07.168Z,101747.12
2019-04-01T12:55:36.802Z,101747.48
2019-04-01T12:58:06.366Z,101743.84
2019-04-01T13:00:35.962Z,101742.05
2019-04-01T13:03:05.532Z,101733.09
2019-04-01T13:05:35.154Z,101722.41
2019-04-01T13:08:04.796Z,101723.44
2019-04-01T13:10:34.443Z,101714.94
2019-04-01T13:13:04.026Z,101711.34
2019-04-01T13:15:33.573Z,101707.75
2019-04-01T13:18:03.108Z,101703.91
2019-04-01T13:20:38.008Z,101704.20
2019-04-01T13:23:03.870Z,101696.27
2019-04-01T13:25:33.972Z,101690.33
2019-04-01T13:28:03.699Z,101687.95
2019-04-01T13:30:33.228Z,101684.10
2019-04-01T13:33:02.778Z,101672.07
2019-04-01T13:35:32.327Z,101668.05
2019-04-01T13:38:01.848Z,101658.03
2019-04-01T13:40:31.380Z,101670.26
2019-04-01T13:43:04.403Z,101661.93
2019-04-01T13:45:32.200Z,101658.84
2019-04-01T13:48:01.824Z,101656.69
2019-04-01T13:50:31.757Z,101647.03
2019-04-01T13:53:02.163Z,101647.73
2019-04-01T13:55:32.656Z,101647.83
2019-04-01T13:58:02.190Z,101647.73
2019-04-01T14:00:31.712Z,101641.47
2019-04-01T14:03:01.239Z,101631.72
2019-04-01T14:05:30.756Z,101637.00
2019-04-01T14:08:00.270Z,101628.81
2019-04-01T14:10:29.805Z,101626.51
2019-04-01T14:12:59.406Z,101616.59
2019-04-01T14:15:28.907Z,101606.86
2019-04-01T14:17:58.426Z,101609.63
2019-04-01T14:20:27.958Z,101601.98
2019-04-01T14:22:57.479Z,101602.64
2019-04-01T14:25:26.994Z,101607.11
2019-04-01T14:27:56.501Z,101598.56
2019-04-01T14:30:26.096Z,101581.39
2019-04-01T14:32:55.660Z,101577.89
2019-04-01T14:35:25.207Z,101576.98
2019-04-01T14:37:58.023Z,101573.64
2019-04-01T14:40:25.960Z,101573.39
2019-04-01T14:42:55.502Z,101564.52
2019-04-01T14:45:25.019Z,101556.42
2019-04-01T14:47:57.604Z,101548.58
2019-04-01T14:50:25.787Z,101540.62
2019-04-01T14:52:55.291Z,101538.30
2019-04-01T14:55:24.815Z,101535.36
2019-04-01T14:57:54.983Z,101528.49
2019-04-01T15:00:24.807Z,101528.73
2019-04-01T15:02:54.318Z,101521.95
2019-04-01T15:05:24.131Z,101521.13
2019-04-01T15:07:53.645Z,101517.11
2019-04-01T15:10:23.378Z,101506.92
2019-04-01T15:13:04.459Z,101502.12
2019-04-01T15:15:24.217Z,101502.17
2019-04-01T15:17:53.727Z,101490.08
2019-04-01T15:20:23.275Z,101499.88
2019-04-01T15:22:53.385Z,101481.25
2019-04-01T15:25:22.929Z,101483.52
2019-04-01T15:27:52.477Z,101480.27
2019-04-01T15:30:22.104Z,101478.23
2019-04-01T15:32:52.160Z,101475.84
2019-04-01T15:35:22.166Z,101469.92
2019-04-01T15:37:52.156Z,101458.68
2019-04-01T15:40:22.148Z,101462.98
2019-04-01T15:42:51.713Z,101456.31
2019-04-01T15:45:21.330Z,101464.66
2019-04-01T15:47:50.859Z,101461.03
2019-04-01T15:50:28.468Z,101455.73
2019-04-01T15:52:52.753Z,101448.41
2019-04-01T15:55:22.316Z,101444.72
2019-04-01T15:57:51.830Z,101438.94
2019-04-01T16:00:21.508Z,101427.13
2019-04-01T16:02:51.151Z,101432.90
2019-04-01T16:05:20.678Z,101431.81
2019-04-01T16:07:50.286Z,101421.95
2019-04-01T16:10:20.900Z,101422.42
2019-04-01T16:12:50.637Z,101426.33
2019-04-01T16:15:20.269Z,101425.33
2019-04-01T16:17:49.953Z,101413.52
2019-04-01T16:20:19.493Z,101412.41
2019-04-01T16:22:49.305Z,101405.89
2019-04-01T16:25:20.695Z,101404.83
2019-04-01T16:27:50.254Z,101397.48
2019-04-01T16:30:19.779Z,101398.78
2019-04-01T16:32:49.336Z,101393.53
2019-04-01T16:35:18.865Z,101390.39
2019-04-01T16:37:48.417Z,101392.05
2019-04-01T16:40:18.428Z,101396.84
2019-04-01T16:42:48.475Z,101395.55
2019-04-01T16:45:18.206Z,101395.77
2019-04-01T16:47:48.589Z,101398.64
2019-04-01T16:50:18.539Z,101396.16
2019-04-01T16:52:48.099Z,101400.97
2019-04-01T16:55:18.401Z,101392.19
2019-04-01T16:57:48.242Z,101393.10
2019-04-01T17:00:19.487Z,101391.83
2019-04-01T17:02:50.033Z,101398.05
2019-04-01T17:05:24.317Z,101388.59
2019-04-01T17:07:53.838Z,101388.99
2019-04-01T17:10:25.018Z,101387.16
2019-04-01T17:12:54.632Z,101385.98
2019-04-01T17:15:24.441Z,101387.30
2019-04-01T17:17:53.972Z,101382.86
2019-04-01T17:20:23.498Z,101380.34
2019-04-01T17:22:53.053Z,101380.34
2019-04-01T17:25:22.601Z,101379.80
2019-04-01T17:27:52.213Z,101380.47
2019-04-01T17:30:21.989Z,101384.67
2019-04-01T17:32:52.895Z,101375.08
2019-04-01T17:35:22.503Z,101372.48
2019-04-01T17:37:53.127Z,101370.88
2019-04-01T17:40:22.687Z,101373.48
2019-04-01T17:42:53.184Z,101375.39
2019-04-01T17:45:41.066Z,101374.11
2019-04-01T17:48:10.840Z,101370.09
2019-04-01T17:50:40.449Z,101368.75
2019-04-01T17:53:10.611Z,101366.29
2019-04-01T17:55:40.143Z,101367.94
2019-04-01T17:58:09.711Z,101364.55
2019-04-01T18:00:42.525Z,101363.73
2019-04-01T18:03:12.131Z,101362.95
2019-04-01T18:05:41.721Z,101361.27
2019-04-01T18:08:11.333Z,101360.66
2019-04-01T18:10:40.874Z,101368.61
2019-04-01T18:13:13.715Z,101361.09
2019-04-01T18:15:44.286Z,101366.42
2019-04-01T18:18:26.068Z,101360.51
2019-04-01T18:20:46.013Z,101364.18
2019-04-01T18:23:15.551Z,101356.61
2019-04-01T18:25:45.100Z,101369.36
2019-04-01T18:28:14.638Z,101365.67
2019-04-01T18:30:44.223Z,101360.62
2019-04-01T18:33:13.767Z,101362.09
2019-04-01T18:35:44.892Z,101361.30
2019-04-01T18:38:14.573Z,101366.53
2019-04-01T18:40:44.156Z,101372.50
2019-04-01T18:43:13.683Z,101368.11
2019-04-01T18:45:43.940Z,101368.33
2019-04-01T18:48:14.760Z,101363.70
2019-04-01T18:50:44.623Z,101373.03
2019-04-01T18:53:14.232Z,101371.88
2019-04-01T18:55:43.779Z,101369.38
2019-04-01T18:58:13.322Z,101366.52
2019-04-01T19:00:42.909Z,101367.47
2019-04-01T19:03:12.547Z,101373.39
2019-04-01T19:05:42.075Z,101377.33
2019-04-01T19:08:11.628Z,101372.81
2019-04-01T19:10:41.732Z,101371.48
2019-04-01T19:13:12.703Z,101372.05
2019-04-01T19:15:43.868Z,101372.34
2019-04-01T19:18:14.481Z,101369.80
2019-04-01T19:20:55.621Z,101371.85
2019-04-01T19:23:16.546Z,101372.84
2019-04-01T19:25:50.660Z,101341.96
2019-04-01T19:28:20.883Z,101367.12
2019-04-01T19:30:50.450Z,101369.66
2019-04-01T19:33:19.998Z,101373.22
2019-04-01T19:35:49.635Z,101371.34
2019-04-01T19:38:21.318Z,101367.98
2019-04-01T19:40:51.299Z,101363.41
2019-04-01T19:43:21.610Z,101362.34
2019-04-01T19:45:51.154Z,101360.81
2019-04-01T19:48:20.724Z,101362.58
2019-04-01T19:50:50.254Z,101363.27
2019-04-01T19:53:19.824Z,101361.95
2019-04-01T19:55:49.341Z,101359.34
2019-04-01T19:58:18.964Z,101359.35
2019-04-01T20:00:49.569Z,101358.50
2019-04-01T20:03:19.180Z,101353.98
2019-04-01T20:05:50.082Z,101348.97
2019-04-01T20:08:19.586Z,101343.73
2019-04-01T20:10:49.363Z,101330.56
2019-04-01T20:13:18.901Z,101342.30
2019-04-01T20:15:48.526Z,101339.20
2019-04-01T20:18:18.066Z,101333.63
2019-04-01T20:20:47.812Z,101333.56
2019-04-01T20:23:17.520Z,101327.72
2019-04-01T20:25:48.737Z,101327.84
2019-04-01T20:28:18.420Z,101322.41
2019-04-01T20:30:48.621Z,101316.18
2019-04-01T20:33:19.634Z,101299.08
2019-04-01T20:35:49.455Z,101309.48
2019-04-01T20:38:19.357Z,101305.89
2019-04-01T20:40:48.909Z,101307.39
2019-04-01T20:43:18.429Z,101302.06
2019-04-01T20:45:48.044Z,101302.88
2019-04-01T20:48:17.590Z,101297.99
2019-04-01T20:50:47.101Z,101294.06
2019-04-01T20:53:16.652Z,101290.13
2019-04-01T20:55:48.422Z,101288.53
2019-04-01T20:58:17.641Z,101278.21
2019-04-01T21:00:47.196Z,101274.73
2019-04-01T21:03:17.084Z,101274.84
2019-04-01T21:05:46.602Z,101219.89
2019-04-01T21:08:16.461Z,101270.77
2019-04-01T21:10:46.395Z,101265.80
2019-04-01T21:13:16.030Z,101265.88
2019-04-01T21:15:45.709Z,101258.16
2019-04-01T21:18:15.295Z,101251.11
2019-04-01T21:20:44.830Z,101247.48
2019-04-01T21:23:14.364Z,101244.55
2019-04-01T21:25:44.574Z,101239.42
2019-04-01T21:28:14.145Z,101235.05
2019-04-01T21:30:43.783Z,101236.64
2019-04-01T21:33:14.066Z,101230.74
2019-04-01T21:35:43.794Z,101223.18
2019-04-01T21:38:13.324Z,101221.30
2019-04-01T21:40:42.876Z,101224.05
2019-04-01T21:43:14.163Z,101216.06
2019-04-01T21:45:45.803Z,101215.85
2019-04-01T21:48:15.343Z,101212.55
2019-04-01T21:50:44.872Z,101204.38
2019-04-01T21:53:14.381Z,101202.38
2019-04-01T21:55:43.904Z,101195.89
2019-04-01T21:58:13.432Z,101193.45
2019-04-01T22:00:54.034Z,101188.92
2019-04-01T22:03:23.540Z,101184.84
2019-04-01T22:05:53.056Z,101184.95
2019-04-01T22:08:22.634Z,101180.64
2019-04-01T22:10:52.154Z,101167.53
2019-04-01T22:13:21.754Z,101172.28
2019-04-01T22:15:51.290Z,101163.43
2019-04-01T22:18:20.814Z,101155.86
2019-04-01T22:20:50.340Z,101162.39
2019-04-01T22:23:19.931Z,101155.45
2019-04-01T22:25:49.455Z,101154.31
2019-04-01T22:28:19.110Z,101156.02
2019-04-01T22:30:48.620Z,101154.71
2019-04-01T22:33:18.114Z,101150.62
2019-04-01T22:35:47.712Z,101148.98
2019-04-01T22:38:25.095Z,101140.41
2019-04-01T22:40:48.427Z,101144.63
2019-04-01T22:43:17.952Z,101138.37
2019-04-01T22:45:48.334Z,101136.22
2019-04-01T22:48:18.848Z,101132.00
2019-04-01T22:50:48.366Z,101128.25
2019-04-01T22:53:17.920Z,101126.92
2019-04-01T22:55:47.445Z,101118.30
2019-04-01T22:58:16.971Z,101116.62
2019-04-01T23:00:47.186Z,101112.31
2019-04-01T23:03:18.182Z,101110.33
2019-04-01T23:05:47.700Z,101109.39
2019-04-01T23:08:17.195Z,101105.55
2019-04-01T23:10:46.715Z,101102.69
2019-04-01T23:13:16.215Z,101091.60
2019-04-01T23:15:45.734Z,101092.47
2019-04-01T23:18:15.241Z,101091.23
2019-04-01T23:20:44.748Z,101088.33
2019-04-01T23:23:14.255Z,101084.30
2019-04-01T23:25:43.783Z,101089.16
2019-04-01T23:28:13.291Z,101083.09
2019-04-01T23:30:42.814Z,101080.33
2019-04-01T23:33:12.319Z,101081.70
2019-04-01T23:35:42.289Z,101079.18
2019-04-01T23:38:12.733Z,101076.12
2019-04-01T23:40:42.243Z,101072.13
2019-04-01T23:43:11.760Z,101066.11
2019-04-01T23:45:41.279Z,101059.08
2019-04-01T23:48:10.783Z,101062.78
2019-04-01T23:50:40.287Z,101056.58
2019-04-01T23:53:09.782Z,101051.80
2019-04-01T23:55:39.291Z,101053.36
2019-04-01T23:58:08.795Z,101043.02
